createdAt,value
2018-03-30T00:01:34.443Z,28.83
2018-03-30T00:04:02.814Z,32.73
2018-03-30T00:06:31.134Z,33.67
2018-03-30T00:08:59.528Z,26.77
2018-03-30T00:11:28.784Z,29.80
2018-03-30T00:13:57.133Z,28.70
2018-03-30T00:16:25.537Z,32.40
2018-03-30T00:18:53.941Z,27.27
2018-03-30T00:21:22.283Z,30.47
2018-03-30T00:23:50.601Z,28.23
2018-03-30T00:26:18.973Z,31.50
2018-03-30T00:28:47.297Z,27.53
2018-03-30T00:31:15.689Z,26.90
2018-03-30T00:33:44.022Z,26.33
2018-03-30T00:36:12.349Z,27.27
2018-03-30T00:38:40.696Z,27.00
2018-03-30T00:41:09.019Z,26.90
2018-03-30T00:43:37.432Z,29.13
2018-03-30T00:46:05.850Z,30.10
2018-03-30T00:48:34.363Z,31.43
2018-03-30T00:51:02.851Z,26.27
2018-03-30T00:53:54.035Z,23.23
2018-03-30T00:56:22.387Z,26.20
2018-03-30T00:58:50.802Z,30.63
2018-03-30T01:01:19.114Z,27.27
2018-03-30T01:03:47.461Z,27.47
2018-03-30T01:06:15.819Z,25.17
2018-03-30T01:08:44.231Z,26.30
2018-03-30T01:11:12.563Z,25.57
2018-03-30T01:13:40.952Z,23.53
2018-03-30T01:16:09.393Z,23.93
2018-03-30T01:18:37.750Z,23.63
2018-03-30T01:21:06.082Z,24.37
2018-03-30T01:23:34.412Z,26.27
2018-03-30T01:26:03.645Z,20.83
2018-03-30T01:28:32.053Z,24.40
2018-03-30T01:31:00.466Z,24.87
2018-03-30T01:33:28.842Z,27.23
2018-03-30T01:35:57.183Z,24.40
2018-03-30T01:38:25.549Z,22.93
2018-03-30T01:40:53.941Z,22.47
2018-03-30T01:43:22.311Z,20.83
2018-03-30T01:45:50.627Z,24.93
2018-03-30T01:48:19.002Z,22.30
2018-03-30T01:50:47.334Z,22.87
2018-03-30T01:53:15.671Z,23.60
2018-03-30T01:55:44.000Z,21.80
2018-03-30T01:58:12.375Z,21.43
2018-03-30T02:00:40.788Z,20.20
2018-03-30T02:03:09.123Z,26.80
2018-03-30T02:05:37.553Z,21.10
2018-03-30T02:08:05.970Z,21.03
2018-03-30T02:10:34.309Z,19.23
2018-03-30T02:13:02.646Z,19.13
2018-03-30T02:15:30.996Z,19.33
2018-03-30T02:17:59.410Z,18.93
2018-03-30T02:20:27.797Z,18.97
2018-03-30T02:22:56.105Z,22.77
2018-03-30T02:25:24.439Z,17.93
2018-03-30T02:27:52.761Z,18.47
2018-03-30T02:30:21.104Z,19.20
2018-03-30T02:32:49.471Z,18.37
2018-03-30T02:35:17.814Z,16.43
2018-03-30T02:37:46.115Z,18.33
2018-03-30T02:40:14.516Z,20.50
2018-03-30T02:42:42.826Z,18.93
2018-03-30T02:45:11.181Z,26.90
2018-03-30T02:47:39.526Z,20.63
2018-03-30T02:52:59.818Z,17.23
2018-03-30T02:55:28.154Z,23.03
2018-03-30T02:57:56.524Z,18.87
2018-03-30T03:00:24.929Z,24.97
2018-03-30T03:02:53.295Z,22.27
2018-03-30T03:05:21.623Z,20.77
2018-03-30T03:07:49.952Z,24.67
2018-03-30T03:10:18.424Z,23.87
2018-03-30T03:12:46.744Z,19.27
2018-03-30T03:15:15.044Z,19.00
2018-03-30T03:17:43.429Z,19.87
2018-03-30T03:20:11.837Z,25.47
2018-03-30T03:22:40.166Z,17.83
2018-03-30T03:25:08.496Z,17.00
2018-03-30T03:27:36.922Z,16.33
2018-03-30T03:30:05.330Z,23.60
2018-03-30T03:32:33.656Z,18.43
2018-03-30T03:35:01.979Z,16.77
2018-03-30T03:37:30.356Z,17.70
2018-03-30T03:39:58.676Z,17.73
2018-03-30T03:42:27.033Z,19.10
2018-03-30T03:44:55.355Z,17.63
2018-03-30T03:47:23.757Z,18.63
2018-03-30T03:49:52.076Z,15.50
2018-03-30T03:52:20.405Z,19.90
2018-03-30T03:54:48.733Z,23.30
2018-03-30T03:57:17.075Z,16.30
2018-03-30T03:59:45.391Z,15.53
2018-03-30T04:02:13.759Z,15.83
2018-03-30T04:04:42.094Z,18.10
2018-03-30T04:07:10.518Z,16.53
2018-03-30T04:09:38.861Z,16.60
2018-03-30T04:12:07.234Z,14.93
2018-03-30T04:14:35.676Z,17.23
2018-03-30T04:17:04.001Z,15.13
2018-03-30T04:19:32.360Z,15.97
2018-03-30T04:22:00.667Z,17.67
2018-03-30T04:24:29.013Z,14.83
2018-03-30T04:26:57.354Z,19.30
2018-03-30T04:29:25.711Z,18.13
2018-03-30T04:31:54.102Z,19.17
2018-03-30T04:34:22.492Z,15.97
2018-03-30T04:36:50.888Z,18.07
2018-03-30T04:39:19.238Z,16.37
2018-03-30T04:41:47.732Z,15.03
2018-03-30T04:44:16.252Z,19.23
2018-03-30T04:46:44.627Z,13.67
2018-03-30T04:49:13.075Z,17.67
2018-03-30T04:51:41.407Z,14.70
2018-03-30T04:54:09.831Z,18.33
2018-03-30T04:56:38.204Z,16.17
2018-03-30T04:59:06.547Z,14.03
2018-03-30T05:01:34.860Z,14.00
2018-03-30T05:04:03.190Z,16.10
2018-03-30T05:06:31.604Z,13.97
2018-03-30T05:08:59.957Z,15.77
2018-03-30T05:11:28.262Z,17.77
2018-03-30T05:13:56.649Z,15.93
2018-03-30T05:16:24.972Z,15.37
2018-03-30T05:18:53.304Z,16.50
2018-03-30T05:21:21.658Z,18.83
2018-03-30T05:23:49.983Z,15.37
2018-03-30T05:26:18.324Z,16.63
2018-03-30T05:28:46.725Z,16.33
2018-03-30T05:31:15.073Z,13.63
2018-03-30T05:33:43.409Z,14.80
2018-03-30T05:36:11.756Z,14.27
2018-03-30T05:38:40.080Z,15.80
2018-03-30T05:41:08.401Z,13.60
2018-03-30T05:43:38.863Z,20.37
2018-03-30T05:46:07.219Z,11.70
2018-03-30T05:48:35.542Z,20.13
2018-03-30T05:51:03.877Z,17.03
2018-03-30T05:53:32.664Z,16.10
2018-03-30T05:56:00.991Z,15.60
2018-03-30T05:58:29.352Z,13.70
2018-03-30T06:00:57.715Z,13.90
2018-03-30T06:03:26.052Z,12.97
2018-03-30T06:05:54.445Z,14.27
2018-03-30T06:08:22.755Z,12.57
2018-03-30T06:10:51.087Z,13.50
2018-03-30T06:13:19.405Z,14.43
2018-03-30T06:15:47.822Z,12.93
2018-03-30T06:18:16.164Z,12.70
2018-03-30T06:20:44.492Z,15.23
2018-03-30T06:23:12.878Z,13.57
2018-03-30T06:25:42.586Z,12.70
2018-03-30T06:28:10.916Z,13.73
2018-03-30T06:30:39.575Z,16.70
2018-03-30T06:33:07.918Z,11.77
2018-03-30T06:35:36.795Z,13.47
2018-03-30T06:38:05.174Z,14.47
2018-03-30T06:40:33.517Z,12.33
2018-03-30T06:43:01.870Z,12.57
2018-03-30T06:45:31.322Z,13.57
2018-03-30T06:47:59.646Z,16.23
2018-03-30T06:50:27.958Z,15.83
2018-03-30T06:52:56.298Z,13.70
2018-03-30T06:55:24.613Z,16.03
2018-03-30T06:57:52.944Z,16.67
2018-03-30T07:00:21.515Z,18.00
2018-03-30T07:02:49.932Z,15.17
2018-03-30T07:05:18.250Z,13.57
2018-03-30T07:07:46.667Z,12.57
2018-03-30T07:10:15.100Z,13.23
2018-03-30T07:12:43.547Z,13.13
2018-03-30T07:15:11.941Z,11.83
2018-03-30T07:17:40.241Z,13.17
2018-03-30T07:20:09.624Z,13.53
2018-03-30T07:22:38.037Z,16.13
2018-03-30T07:25:06.359Z,18.07
2018-03-30T07:27:34.737Z,14.10
2018-03-30T07:30:03.219Z,16.40
2018-03-30T07:32:31.550Z,16.03
2018-03-30T07:34:59.863Z,11.47
2018-03-30T07:37:28.202Z,12.63
2018-03-30T07:39:56.521Z,11.73
2018-03-30T07:42:24.984Z,13.00
2018-03-30T07:44:53.446Z,15.03
2018-03-30T07:47:22.812Z,13.07
2018-03-30T07:49:51.170Z,15.80
2018-03-30T07:52:19.502Z,12.30
2018-03-30T07:54:48.149Z,13.17
2018-03-30T07:57:16.479Z,15.23
2018-03-30T07:59:44.859Z,15.70
2018-03-30T08:02:13.291Z,12.97
2018-03-30T08:04:41.663Z,14.57
2018-03-30T08:07:10.204Z,11.33
2018-03-30T08:09:38.586Z,12.17
2018-03-30T08:12:06.996Z,15.63
2018-03-30T08:14:35.339Z,12.17
2018-03-30T08:17:03.692Z,12.63
2018-03-30T08:19:32.133Z,12.00
2018-03-30T08:22:00.488Z,11.70
2018-03-30T08:24:28.892Z,13.63
2018-03-30T08:26:57.455Z,11.77
2018-03-30T08:29:25.824Z,10.83
2018-03-30T08:31:54.192Z,13.67
2018-03-30T08:34:22.630Z,11.77
2018-03-30T08:36:50.966Z,11.80
2018-03-30T08:39:19.296Z,12.43
2018-03-30T08:41:48.161Z,12.30
2018-03-30T08:44:16.520Z,11.07
2018-03-30T08:46:44.961Z,11.30
2018-03-30T08:49:13.378Z,10.93
2018-03-30T08:51:41.719Z,10.83
2018-03-30T08:54:10.039Z,11.47
2018-03-30T08:56:38.375Z,9.83
2018-03-30T08:59:06.756Z,12.13
2018-03-30T09:01:35.203Z,12.70
2018-03-30T09:04:03.927Z,12.43
2018-03-30T09:06:32.641Z,10.77
2018-03-30T09:09:00.965Z,10.43
2018-03-30T09:11:29.319Z,10.73
2018-03-30T09:13:57.668Z,9.83
2018-03-30T09:16:26.003Z,9.30
2018-03-30T09:18:54.314Z,9.10
2018-03-30T09:21:22.657Z,7.93
2018-03-30T09:23:50.996Z,7.27
2018-03-30T09:26:19.377Z,8.40
2018-03-30T09:28:47.708Z,6.47
2018-03-30T09:31:16.054Z,6.10
2018-03-30T09:33:44.421Z,7.50
2018-03-30T09:36:13.036Z,6.50
2018-03-30T09:38:43.274Z,6.37
2018-03-30T09:41:11.619Z,5.83
2018-03-30T09:43:42.042Z,6.13
2018-03-30T09:46:10.639Z,6.77
2018-03-30T09:48:39.139Z,6.63
2018-03-30T09:51:07.572Z,6.30
2018-03-30T09:53:36.104Z,6.03
2018-03-30T09:56:04.405Z,7.90
2018-03-30T09:58:32.802Z,7.00
2018-03-30T10:01:01.888Z,6.60
2018-03-30T10:03:30.220Z,6.70
2018-03-30T10:05:58.590Z,6.77
2018-03-30T10:08:26.936Z,8.53
2018-03-30T10:10:55.265Z,7.37
2018-03-30T10:13:23.821Z,8.77
2018-03-30T10:15:52.182Z,8.07
2018-03-30T10:18:20.696Z,8.13
2018-03-30T10:20:49.058Z,6.73
2018-03-30T10:23:17.412Z,8.07
2018-03-30T10:25:45.774Z,7.63
2018-03-30T10:28:14.126Z,8.20
2018-03-30T10:30:42.450Z,7.87
2018-03-30T10:33:10.857Z,7.60
2018-03-30T10:35:39.185Z,10.87
2018-03-30T10:38:07.527Z,10.33
2018-03-30T10:40:35.837Z,8.83
2018-03-30T10:43:04.166Z,11.00
2018-03-30T10:45:32.519Z,10.30
2018-03-30T10:48:00.968Z,8.53
2018-03-30T10:50:29.301Z,9.83
2018-03-30T10:52:57.650Z,10.03
2018-03-30T10:55:26.108Z,10.93
2018-03-30T10:57:55.331Z,9.77
2018-03-30T11:00:23.668Z,9.33
2018-03-30T11:02:51.992Z,10.20
2018-03-30T11:05:20.337Z,12.63
2018-03-30T11:07:48.742Z,10.73
2018-03-30T11:10:17.114Z,10.00
2018-03-30T11:12:45.436Z,10.23
2018-03-30T11:15:13.821Z,12.53
2018-03-30T11:17:42.144Z,10.30
2018-03-30T11:20:10.483Z,10.47
2018-03-30T11:22:38.805Z,10.60
2018-03-30T11:25:07.180Z,11.53
2018-03-30T11:27:35.504Z,10.10
2018-03-30T11:30:03.851Z,11.80
2018-03-30T11:32:32.233Z,12.70
2018-03-30T11:35:00.557Z,11.73
2018-03-30T11:37:29.028Z,11.00
2018-03-30T11:39:57.408Z,11.57
2018-03-30T11:42:25.815Z,11.67
2018-03-30T11:44:54.143Z,12.43
2018-03-30T11:47:22.487Z,12.43
2018-03-30T11:49:50.804Z,11.53
2018-03-30T11:52:19.140Z,12.70
2018-03-30T11:54:47.459Z,12.40
2018-03-30T11:57:15.910Z,12.57
2018-03-30T11:59:44.330Z,13.20
2018-03-30T12:02:12.691Z,11.87
2018-03-30T12:04:41.040Z,11.97
2018-03-30T12:07:09.368Z,12.17
2018-03-30T12:09:37.692Z,10.47
2018-03-30T12:12:06.088Z,11.17
2018-03-30T12:14:34.404Z,10.10
2018-03-30T12:17:02.765Z,10.83
2018-03-30T12:19:31.107Z,10.40
2018-03-30T12:21:59.464Z,9.20
2018-03-30T12:24:27.797Z,10.67
2018-03-30T12:26:56.175Z,11.00
2018-03-30T12:29:24.473Z,9.70
2018-03-30T12:31:52.786Z,10.30
2018-03-30T12:34:21.229Z,10.47
2018-03-30T12:36:49.540Z,10.67
2018-03-30T12:39:17.910Z,10.27
2018-03-30T12:41:46.223Z,11.47
2018-03-30T12:44:14.645Z,9.40
2018-03-30T12:46:42.959Z,11.20
2018-03-30T12:49:11.573Z,10.17
2018-03-30T12:51:39.888Z,9.20
2018-03-30T12:54:08.364Z,8.80
2018-03-30T12:56:36.697Z,9.93
2018-03-30T12:59:05.019Z,9.43
2018-03-30T13:01:33.316Z,9.10
2018-03-30T13:04:01.655Z,9.60
2018-03-30T13:06:29.969Z,9.53
2018-03-30T13:08:58.291Z,11.93
2018-03-30T13:11:26.598Z,9.33
2018-03-30T13:13:54.970Z,10.77
2018-03-30T13:16:23.308Z,8.10
2018-03-30T13:18:51.633Z,10.37
2018-03-30T13:21:19.994Z,9.30
2018-03-30T13:23:48.288Z,9.30
2018-03-30T13:26:16.612Z,9.30
2018-03-30T13:28:44.929Z,9.47
2018-03-30T13:31:13.280Z,10.53
2018-03-30T13:33:41.587Z,9.97
2018-03-30T13:36:09.952Z,9.33
2018-03-30T13:38:38.272Z,10.53
2018-03-30T13:41:06.603Z,9.40
2018-03-30T13:43:34.926Z,8.13
2018-03-30T13:46:03.252Z,8.50
2018-03-30T13:48:31.613Z,8.63
2018-03-30T13:51:17.526Z,9.27
2018-03-30T13:54:03.267Z,9.23
2018-03-30T13:56:46.472Z,9.03
2018-03-30T13:59:15.614Z,8.67
2018-03-30T14:01:50.512Z,9.37
2018-03-30T14:04:25.429Z,7.70
2018-03-30T14:06:54.713Z,8.67
2018-03-30T14:09:25.824Z,8.07
2018-03-30T14:12:06.412Z,7.10
2018-03-30T14:14:34.730Z,8.87
2018-03-30T14:17:20.600Z,9.00
2018-03-30T14:19:49.832Z,8.20
2018-03-30T14:25:24.953Z,7.80
2018-03-30T14:27:57.745Z,7.83
2018-03-30T14:30:39.784Z,7.67
2018-03-30T14:33:09.965Z,7.07
2018-03-30T14:35:39.977Z,7.60
2018-03-30T14:38:18.957Z,7.90
2018-03-30T14:40:48.069Z,7.80
2018-03-30T14:43:17.230Z,7.00
2018-03-30T14:48:52.625Z,7.83
2018-03-30T14:51:25.531Z,6.70
2018-03-30T14:53:56.500Z,7.60
2018-03-30T14:56:25.584Z,6.80
2018-03-30T14:58:54.668Z,7.40
2018-03-30T15:01:24.397Z,7.43
2018-03-30T15:03:55.235Z,6.53
2018-03-30T15:09:26.722Z,5.40
2018-03-30T15:12:06.459Z,6.80
2018-03-30T15:14:35.530Z,5.77
2018-03-30T15:17:08.841Z,6.10
2018-03-30T15:19:52.198Z,5.60
2018-03-30T15:22:27.116Z,6.50
2018-03-30T15:24:58.088Z,5.70
2018-03-30T15:27:28.243Z,6.67
2018-03-30T15:33:10.149Z,6.23
2018-03-30T15:35:42.961Z,5.90
2018-03-30T15:38:11.391Z,5.93
2018-03-30T15:40:39.710Z,9.27
2018-03-30T15:43:09.508Z,6.63
2018-03-30T15:45:44.606Z,6.10
2018-03-30T15:48:13.229Z,6.20
2018-03-30T15:50:41.636Z,6.27
2018-03-30T15:53:17.683Z,5.90
2018-03-30T15:55:46.843Z,7.67
2018-03-30T15:58:15.155Z,7.77
2018-03-30T16:00:43.531Z,7.63
2018-03-30T16:03:11.951Z,8.07
2018-03-30T16:05:40.313Z,7.53
2018-03-30T16:08:10.042Z,8.07
2018-03-30T16:10:41.089Z,6.90
2018-03-30T16:13:09.439Z,6.93
2018-03-30T16:15:37.764Z,9.20
2018-03-30T16:18:06.226Z,6.30
2018-03-30T16:20:34.613Z,8.20
2018-03-30T16:23:02.601Z,5.73
2018-03-30T16:25:30.777Z,7.30
2018-03-30T16:27:59.019Z,11.13
2018-03-30T16:30:27.255Z,6.90
2018-03-30T16:32:55.596Z,8.73
2018-03-30T16:35:23.513Z,6.93
2018-03-30T16:37:51.532Z,7.63
2018-03-30T16:40:19.495Z,7.13
2018-03-30T16:42:48.434Z,7.83
2018-03-30T16:45:17.173Z,7.03
2018-03-30T16:47:45.205Z,8.93
2018-03-30T16:50:13.281Z,7.90
2018-03-30T16:52:41.152Z,8.43
2018-03-30T16:55:09.009Z,9.17
2018-03-30T16:57:37.153Z,8.30
2018-03-30T17:00:06.878Z,8.90
2018-03-30T17:02:34.850Z,8.00
2018-03-30T17:05:02.918Z,7.77
2018-03-30T17:07:31.723Z,8.00
2018-03-30T17:09:59.727Z,10.27
2018-03-30T17:12:27.744Z,7.80
2018-03-30T17:14:55.591Z,7.07
2018-03-30T17:17:23.870Z,6.83
2018-03-30T17:19:52.029Z,5.70
2018-03-30T17:22:20.274Z,7.00
2018-03-30T17:24:48.257Z,7.90
2018-03-30T17:27:16.183Z,6.63
2018-03-30T17:29:44.136Z,6.00
2018-03-30T17:32:12.134Z,5.93
2018-03-30T17:34:40.236Z,6.63
2018-03-30T17:37:08.355Z,6.50
2018-03-30T17:39:36.619Z,7.57
2018-03-30T17:42:04.492Z,4.87
2018-03-30T17:44:32.483Z,5.60
2018-03-30T17:47:00.492Z,5.43
2018-03-30T17:49:28.455Z,4.80
2018-03-30T17:51:56.482Z,5.80
2018-03-30T17:54:25.318Z,6.23
2018-03-30T17:56:53.332Z,6.27
2018-03-30T17:59:23.993Z,6.37
2018-03-30T18:01:56.817Z,7.30
2018-03-30T18:04:24.905Z,6.20
2018-03-30T18:06:55.653Z,6.50
2018-03-30T18:09:23.950Z,6.53
2018-03-30T18:11:52.166Z,8.20
2018-03-30T18:14:20.322Z,6.40
2018-03-30T18:16:48.414Z,6.00
2018-03-30T18:19:16.491Z,6.93
2018-03-30T18:21:44.385Z,5.90
2018-03-30T18:24:12.302Z,7.30
2018-03-30T18:26:40.490Z,9.30
2018-03-30T18:29:08.533Z,7.70
2018-03-30T18:31:36.413Z,7.97
2018-03-30T18:34:04.503Z,9.20
2018-03-30T18:36:32.436Z,80.00
2018-03-30T18:39:00.959Z,49.20
2018-03-30T18:41:29.058Z,8.20
2018-03-30T18:43:56.953Z,7.83
2018-03-30T18:46:25.051Z,7.30
2018-03-30T18:48:53.234Z,21.73
2018-03-30T18:51:21.203Z,8.43
2018-03-30T18:53:49.116Z,7.60
2018-03-30T18:56:17.023Z,7.83
2018-03-30T18:58:44.894Z,9.80
2018-03-30T19:01:12.775Z,8.40
2018-03-30T19:03:40.551Z,13.53
2018-03-30T19:06:08.336Z,8.37
2018-03-30T19:08:36.114Z,9.47
2018-03-30T19:11:03.938Z,11.60
2018-03-30T19:13:31.727Z,8.33
2018-03-30T19:15:59.540Z,9.37
2018-03-30T19:18:27.323Z,11.27
2018-03-30T19:20:55.095Z,10.07
2018-03-30T19:23:22.929Z,17.03
2018-03-30T19:25:50.695Z,10.87
2018-03-30T19:28:18.557Z,11.67
2018-03-30T19:30:46.324Z,12.27
2018-03-30T19:33:14.111Z,12.70
2018-03-30T19:35:42.042Z,18.23
2018-03-30T19:38:09.872Z,12.93
2018-03-30T19:40:37.655Z,13.60
2018-03-30T19:43:05.472Z,13.40
2018-03-30T19:45:33.268Z,14.20
2018-03-30T19:48:01.081Z,31.60
2018-03-30T19:50:28.869Z,25.60
2018-03-30T19:52:56.865Z,22.73
2018-03-30T19:55:24.737Z,13.80
2018-03-30T19:57:52.570Z,15.83
2018-03-30T20:00:20.382Z,11.93
2018-03-30T20:02:48.206Z,12.67
2018-03-30T20:05:16.032Z,14.00
2018-03-30T20:07:43.809Z,13.27
2018-03-30T20:10:11.592Z,16.10
2018-03-30T20:12:39.444Z,14.07
2018-03-30T20:15:07.224Z,20.83
2018-03-30T20:17:35.069Z,12.83
2018-03-30T20:20:02.924Z,13.40
2018-03-30T20:22:30.769Z,14.30
2018-03-30T20:24:58.622Z,12.37
2018-03-30T20:27:26.499Z,12.70
2018-03-30T20:29:54.482Z,15.37
2018-03-30T20:32:22.267Z,13.60
2018-03-30T20:34:50.076Z,13.00
2018-03-30T20:37:17.873Z,15.63
2018-03-30T20:39:45.757Z,13.77
2018-03-30T20:42:13.569Z,19.47
2018-03-30T20:44:41.362Z,14.90
2018-03-30T20:47:09.131Z,17.17
2018-03-30T20:49:37.009Z,15.73
2018-03-30T20:52:04.798Z,17.97
2018-03-30T20:54:32.724Z,17.10
2018-03-30T20:57:00.514Z,20.30
2018-03-30T20:59:28.362Z,21.20
2018-03-30T21:01:56.163Z,18.00
2018-03-30T21:04:24.038Z,18.03
2018-03-30T21:06:51.840Z,19.27
2018-03-30T21:09:19.792Z,16.00
2018-03-30T21:11:47.569Z,18.03
2018-03-30T21:14:15.354Z,17.67
2018-03-30T21:16:43.207Z,15.90
2018-03-30T21:19:11.021Z,14.50
2018-03-30T21:21:38.893Z,16.93
2018-03-30T21:24:06.721Z,14.57
2018-03-30T21:26:34.519Z,15.23
2018-03-30T21:29:02.335Z,15.47
2018-03-30T21:31:30.247Z,15.67
2018-03-30T21:33:58.056Z,14.43
2018-03-30T21:36:25.955Z,17.53
2018-03-30T21:38:53.751Z,16.20
2018-03-30T21:41:21.622Z,16.40
2018-03-30T21:43:49.366Z,17.97
2018-03-30T21:46:17.160Z,15.37
2018-03-30T21:48:44.949Z,16.27
2018-03-30T21:51:12.829Z,16.60
2018-03-30T21:53:40.708Z,16.10
2018-03-30T21:56:08.500Z,19.17
2018-03-30T21:58:36.290Z,23.97
2018-03-30T22:01:04.100Z,18.40
2018-03-30T22:03:31.885Z,21.00
2018-03-30T22:05:59.834Z,19.23
2018-03-30T22:08:27.645Z,19.43
2018-03-30T22:10:55.587Z,19.90
2018-03-30T22:13:23.354Z,19.53
2018-03-30T22:15:51.152Z,21.07
2018-03-30T22:18:18.936Z,20.57
2018-03-30T22:20:46.836Z,18.93
2018-03-30T22:23:14.675Z,21.53
2018-03-30T22:25:42.600Z,19.37
2018-03-30T22:28:10.481Z,18.23
2018-03-30T22:30:38.319Z,25.97
2018-03-30T22:33:06.151Z,19.70
2018-03-30T22:35:33.918Z,18.73
2018-03-30T22:38:01.810Z,21.90
2018-03-30T22:40:29.610Z,21.50
2018-03-30T22:42:57.450Z,21.23
2018-03-30T22:45:25.286Z,23.60
2018-03-30T22:47:53.157Z,23.33
2018-03-30T22:50:21.005Z,20.57
2018-03-30T22:52:48.944Z,20.80
2018-03-30T22:55:16.758Z,21.53
2018-03-30T22:57:44.649Z,23.50
2018-03-30T23:00:12.429Z,20.67
2018-03-30T23:02:40.229Z,23.13
2018-03-30T23:05:08.026Z,20.30
2018-03-30T23:07:35.819Z,21.17
2018-03-30T23:10:03.610Z,20.00
2018-03-30T23:12:31.432Z,19.23
2018-03-30T23:14:59.234Z,17.83
2018-03-30T23:17:27.114Z,22.33
2018-03-30T23:19:56.887Z,18.80
2018-03-30T23:22:24.671Z,20.47
2018-03-30T23:24:52.526Z,19.00
2018-03-30T23:27:20.428Z,20.43
2018-03-30T23:29:48.238Z,19.10
2018-03-30T23:32:16.028Z,25.07
2018-03-30T23:34:43.840Z,18.63
2018-03-30T23:37:11.609Z,18.97
2018-03-30T23:39:39.486Z,21.90
2018-03-30T23:42:07.248Z,20.83
2018-03-30T23:44:35.039Z,26.90
2018-03-30T23:47:02.962Z,22.40
2018-03-30T23:49:30.743Z,20.97
2018-03-30T23:51:58.562Z,20.60
2018-03-30T23:54:26.355Z,18.90
2018-03-30T23:56:54.115Z,23.30
2018-03-30T23:59:21.896Z,23.80
